Time;durP1;ratioP1;P1;durP2;ratioP2;P2;SDS_P1;SDS_P2;PMS_P1;PMS_P2;Temp;Humidity;BMP_temperature;BMP_pressure;BME280_temperature;BME280_humidity;BME280_pressure;Samples;Min_cycle;Max_cycle;Signal;HPM_P1;HPM_P2
2022/06/20 00:00:41;;;;;;;5.72;1.75;;;;;;;17.30;54.79;99596.53;4992435;28;20553;-60
2022/06/20 00:03:19;;;;;;;6.57;1.75;;;;;;;17.26;55.59;99582.66;4992296;28;20487;-60
2022/06/20 00:05:46;;;;;;;8.07;1.85;;;;;;;17.27;54.81;99564.91;4992365;28;20050;-60
2022/06/20 00:08:12;;;;;;;6.40;2.20;;;;;;;17.26;55.41;99574.69;4992260;28;20089;-60
2022/06/20 00:10:42;;;;;;;7.32;1.52;;;;;;;17.24;55.71;99579.31;4992518;28;20046;-59
2022/06/20 00:13:21;;;;;;;6.07;1.48;;;;;;;17.22;56.16;99578.59;4975175;28;20085;-60
2022/06/20 00:15:50;;;;;;;6.00;1.75;;;;;;;17.25;55.44;99574.81;4974908;28;20498;-61
2022/06/20 00:18:17;;;;;;;5.10;1.58;;;;;;;17.23;55.54;99566.97;4991936;28;20486;-61
2022/06/20 00:20:44;;;;;;;6.38;1.80;;;;;;;17.23;55.54;99564.31;4974956;28;20109;-62
2022/06/20 00:23:10;;;;;;;7.32;1.88;;;;;;;17.24;55.70;99559.84;4992299;28;20085;-61
2022/06/20 00:25:38;;;;;;;5.55;1.60;;;;;;;17.24;55.92;99549.22;4992169;28;20054;-60
2022/06/20 00:28:05;;;;;;;4.80;1.80;;;;;;;17.24;55.73;99547.41;4992141;28;20046;-60
2022/06/20 00:30:33;;;;;;;5.53;1.60;;;;;;;17.26;55.87;99533.94;4974358;28;20133;-60
2022/06/20 00:32:59;;;;;;;5.50;1.95;;;;;;;17.26;55.60;99525.97;4991725;28;20093;-60
2022/06/20 00:35:26;;;;;;;6.72;1.83;;;;;;;17.24;55.83;99526.13;4991761;28;20077;-62
2022/06/20 00:37:57;;;;;;;5.65;1.95;;;;;;;17.21;56.03;99529.03;4991554;28;20046;-60
2022/06/20 00:40:34;;;;;;;4.32;1.80;;;;;;;17.20;55.84;99506.09;4991078;28;20140;-61
2022/06/20 00:43:01;;;;;;;8.35;1.92;;;;;;;17.17;55.84;99515.19;4991544;28;20050;-61
2022/06/20 00:45:32;;;;;;;8.15;2.45;;;;;;;17.14;56.41;99542.03;4974220;28;20406;-62
2022/06/20 00:48:09;;;;;;;4.32;1.63;;;;;;;17.10;57.23;99539.78;4991921;28;20076;-63
2022/06/20 00:50:41;;;;;;;4.38;1.55;;;;;;;17.12;56.32;99543.97;4991540;28;20060;-61
2022/06/20 00:53:20;;;;;;;7.65;1.80;;;;;;;17.09;57.33;99565.56;4991579;28;20054;-60
2022/06/20 00:56:01;;;;;;;6.93;1.77;;;;;;;17.10;57.17;99567.22;4991654;28;20133;-63
2022/06/20 00:58:38;;;;;;;9.68;1.60;;;;;;;17.09;57.11;99559.38;4991258;28;20046;-60
2022/06/20 01:01:11;;;;;;;6.32;1.95;;;;;;;17.11;56.76;99571.56;4991238;28;20339;-60
2022/06/20 01:03:44;;;;;;;6.32;1.80;;;;;;;17.13;56.55;99574.09;4974086;28;20054;-61
2022/06/20 01:06:28;;;;;;;7.55;1.58;;;;;;;17.11;57.35;99586.66;4974222;28;20131;-63
2022/06/20 01:08:59;;;;;;;7.22;2.03;;;;;;;17.12;56.75;99593.69;4991190;28;20097;-63
2022/06/20 01:11:31;;;;;;;4.15;1.45;;;;;;;17.12;56.57;99604.34;4973935;28;20190;-62
2022/06/20 01:13:57;;;;;;;5.15;1.40;;;;;;;17.11;56.41;99598.16;4991499;28;20054;-60
2022/06/20 01:16:26;;;;;;;6.07;1.80;;;;;;;17.09;56.76;99584.16;4991139;28;20112;-60
2022/06/20 01:18:55;;;;;;;5.97;1.70;;;;;;;17.09;56.55;99567.34;4990981;28;20225;-62
2022/06/20 01:21:28;;;;;;;7.50;1.40;;;;;;;17.09;57.02;99562.03;4973895;28;20133;-62
2022/06/20 01:24:10;;;;;;;4.85;1.77;;;;;;;17.04;57.08;99555.31;4991263;28;20054;-61
2022/06/20 01:27:07;;;;;;;3.10;1.50;;;;;;;17.00;57.07;99551.19;4990976;28;20526;-60
2022/06/20 01:29:34;;;;;;;5.95;1.60;;;;;;;17.03;56.54;99558.91;4991132;28;20062;-61
2022/06/20 01:32:02;;;;;;;9.93;2.20;;;;;;;16.99;56.85;99562.81;4991088;28;20410;-61
2022/06/20 01:34:28;;;;;;;6.95;1.73;;;;;;;16.96;56.78;99555.09;4991102;28;20100;-60
2022/06/20 01:39:45;;;;;;;7.70;1.90;;;;;;;16.96;56.91;99559.59;4990393;28;20241;-61
2022/06/20 01:42:19;;;;;;;6.03;2.10;;;;;;;16.94;56.98;99570.34;4990905;28;20533;-60
2022/06/20 01:44:51;;;;;;;6.72;1.65;;;;;;;16.91;57.54;99565.31;4973602;28;20125;-61
2022/06/20 01:47:17;;;;;;;14.13;1.88;;;;;;;16.90;57.06;99561.78;4990852;28;20062;-62
2022/06/20 01:49:48;;;;;;;4.57;1.52;;;;;;;16.88;57.33;99571.72;4990518;28;20049;-61
2022/06/20 01:52:33;;;;;;;7.30;2.10;;;;;;;16.83;57.74;99558.00;4974513;28;20501;-60
2022/06/20 01:55:11;;;;;;;5.53;2.08;;;;;;;16.82;57.70;99544.84;4977713;28;20483;-63
2022/06/20 01:57:40;;;;;;;5.05;1.80;;;;;;;16.83;57.18;99562.47;4994690;28;20510;-60
2022/06/20 02:00:09;;;;;;;5.47;1.88;;;;;;;16.82;57.14;99566.09;4994309;28;20116;-61
2022/06/20 02:02:44;;;;;;;6.85;2.35;;;;;;;16.78;57.92;99581.44;4977203;28;20117;-61
2022/06/20 02:05:15;;;;;;;8.70;2.33;;;;;;;16.78;57.86;99584.97;4994628;28;20057;-61
2022/06/20 02:07:42;;;;;;;5.13;2.00;;;;;;;16.80;57.52;99587.50;4977413;28;20054;-61
2022/06/20 02:10:13;;;;;;;12.45;2.33;;;;;;;16.79;58.07;99601.78;4977196;28;20348;-60
2022/06/20 02:12:40;;;;;;;9.30;1.70;;;;;;;16.80;57.65;99622.91;4977041;28;20050;-62
2022/06/20 02:15:07;;;;;;;6.70;2.00;;;;;;;16.82;57.83;99632.56;4994496;28;20537;-61
2022/06/20 02:17:41;;;;;;;4.93;1.60;;;;;;;16.81;58.76;99631.69;4977201;28;20058;-62
2022/06/20 02:20:12;;;;;;;6.25;1.88;;;;;;;16.83;58.43;99655.50;4976988;28;20133;-60
2022/06/20 02:22:40;;;;;;;5.13;2.08;;;;;;;16.87;57.96;99662.25;4994533;28;20054;-63
2022/06/20 02:25:12;;;;;;;9.43;2.25;;;;;;;16.87;58.79;99672.88;4994150;28;20062;-62
2022/06/20 02:27:45;;;;;;;4.45;1.83;;;;;;;16.88;58.66;99678.06;4994775;28;20054;-61
2022/06/20 02:30:12;;;;;;;8.90;2.40;;;;;;;16.92;58.07;99686.63;4994110;28;20108;-60
2022/06/20 02:32:44;;;;;;;5.90;3.00;;;;;;;16.92;58.35;99695.44;4976653;28;20046;-59
2022/06/20 02:35:15;;;;;;;4.47;2.83;;;;;;;16.94;58.68;99690.00;4976766;28;20112;-61
2022/06/20 02:37:43;;;;;;;3.97;2.35;;;;;;;16.95;58.33;99694.34;4993717;28;20065;-58
2022/06/20 02:40:13;;;;;;;9.45;2.80;;;;;;;16.94;58.66;99688.16;4993934;28;20050;-59
2022/06/20 02:42:46;;;;;;;6.65;2.15;;;;;;;16.94;58.69;99693.47;4992878;28;20170;-60
2022/06/20 02:45:14;;;;;;;9.70;3.00;;;;;;;16.96;58.57;99685.38;4993797;28;20146;-62
2022/06/20 02:47:46;;;;;;;6.30;2.30;;;;;;;16.94;59.15;99690.81;4993796;28;20061;-63
2022/06/20 02:50:22;;;;;;;5.25;2.15;;;;;;;16.96;59.14;99696.03;4976325;28;20054;-60
2022/06/20 02:52:56;;;;;;;4.93;2.22;;;;;;;16.98;58.82;99694.09;4993800;28;20544;-59
2022/06/20 02:55:24;;;;;;;10.88;2.72;;;;;;;16.99;58.26;99695.75;4976512;28;20054;-60
2022/06/20 02:57:54;;;;;;;6.97;2.50;;;;;;;16.99;58.51;99695.75;4993520;28;20058;-59
2022/06/20 03:00:26;;;;;;;6.00;2.25;;;;;;;16.99;58.67;99692.25;4975991;28;20054;-59
2022/06/20 03:03:00;;;;;;;9.02;2.53;;;;;;;16.98;58.59;99686.09;4975741;28;20046;-63
2022/06/20 03:05:28;;;;;;;8.73;2.50;;;;;;;16.99;58.40;99677.16;4976194;28;20050;-60
2022/06/20 03:07:54;;;;;;;5.32;2.20;;;;;;;17.00;58.10;99675.31;4976057;28;20062;-61
2022/06/20 03:10:39;;;;;;;5.82;2.50;;;;;;;16.96;59.23;99665.94;4993307;28;20050;-62
2022/06/20 03:13:07;;;;;;;6.60;2.20;;;;;;;17.00;58.40;99662.03;4975876;28;20051;-63
2022/06/20 03:15:36;;;;;;;8.13;2.80;;;;;;;17.00;58.29;99651.38;4993503;28;20046;-61
2022/06/20 03:18:05;;;;;;;7.82;2.53;;;;;;;16.99;58.74;99647.91;4993304;28;20050;-60
2022/06/20 03:20:32;;;;;;;5.80;2.53;;;;;;;17.01;58.41;99661.91;4976006;28;20050;-62
2022/06/20 03:23:08;;;;;;;6.72;2.70;;;;;;;16.98;58.82;99663.97;4993169;28;20101;-62
2022/06/20 03:25:37;;;;;;;4.75;2.33;;;;;;;17.00;58.37;99649.59;4975789;28;20121;-63
2022/06/20 03:28:04;;;;;;;5.68;2.38;;;;;;;16.99;58.23;99631.94;4992886;28;20510;-64
2022/06/20 03:30:52;;;;;;;7.78;2.28;;;;;;;16.98;58.24;99616.13;4993428;28;20054;-62
2022/06/20 03:33:21;;;;;;;6.32;2.55;;;;;;;16.96;58.36;99624.22;4993383;28;20120;-63
2022/06/20 03:36:13;;;;;;;6.10;2.15;;;;;;;16.89;59.09;99620.41;4975936;28;20073;-63
2022/06/20 03:38:42;;;;;;;4.28;2.03;;;;;;;16.91;58.26;99608.69;4992660;28;20061;-62
2022/06/20 03:41:11;;;;;;;7.05;2.58;;;;;;;16.89;58.45;99601.78;4975314;28;20104;-60
2022/06/20 03:43:40;;;;;;;7.10;2.17;;;;;;;16.87;58.36;99595.78;4975452;28;20085;-63
2022/06/20 03:46:18;;;;;;;5.30;2.33;;;;;;;16.85;58.91;99590.59;4992659;28;20125;-62
2022/06/20 03:48:59;;;;;;;4.70;2.08;;;;;;;16.82;58.79;99579.41;4992493;28;20487;-62
2022/06/20 03:51:31;;;;;;;6.70;2.38;;;;;;;16.84;59.03;99574.78;4993238;28;20096;-62
2022/06/20 03:54:10;;;;;;;5.88;2.45;;;;;;;16.82;59.02;99564.28;4992728;28;20058;-60
2022/06/20 03:57:06;;;;;;;7.35;2.17;;;;;;;16.79;59.10;99553.91;4992459;28;20437;-62
2022/06/20 03:59:35;;;;;;;7.63;2.10;;;;;;;16.81;59.01;99549.31;4992558;28;20053;-63
2022/06/20 04:02:16;;;;;;;6.53;2.45;;;;;;;16.78;59.61;99545.09;4992630;28;20054;-61
2022/06/20 04:04:50;;;;;;;6.60;2.35;;;;;;;16.79;59.35;99537.97;4975171;28;20050;-62
2022/06/20 04:07:43;;;;;;;8.25;2.65;;;;;;;16.76;59.38;99527.59;4992153;28;20054;-64
2022/06/20 04:13:14;;;;;;;7.03;2.42;;;;;;;16.80;58.77;99515.72;4992226;28;20279;-61
2022/06/20 04:15:48;;;;;;;5.63;2.15;;;;;;;16.78;59.11;99512.34;4973998;28;20064;-61
2022/06/20 04:18:43;;;;;;;8.82;2.53;;;;;;;16.74;59.07;99495.84;4992204;28;20086;-62
2022/06/20 04:21:28;;;;;;;8.48;2.60;;;;;;;16.78;58.95;99489.28;4992245;28;20446;-61
2022/06/20 04:24:09;;;;;;;7.78;2.53;;;;;;;16.76;nan;99485.94;4991952;28;20054;-64
2022/06/20 04:26:48;;;;;;;13.05;2.15;;;;;;;16.79;58.59;99471.53;4991938;28;20054;-61
2022/06/20 04:29:17;;;;;;;6.93;1.88;;;;;;;16.78;58.65;99470.66;4991724;28;20061;-61
2022/06/20 04:31:54;;;;;;;6.03;1.85;;;;;;;16.77;59.25;99473.47;4991917;28;20081;-60
2022/06/20 04:34:42;;;;;;;4.22;1.98;;;;;;;16.82;58.47;99467.75;4992278;28;20058;-62
2022/06/20 04:37:23;;;;;;;5.60;2.22;;;;;;;16.78;58.83;99470.66;4991619;28;20407;-62
2022/06/20 04:40:03;;;;;;;6.05;1.85;;;;;;;16.79;58.82;99484.81;4974325;28;20086;-61
2022/06/20 04:42:50;;;;;;;8.82;2.45;;;;;;;16.78;58.39;99489.28;4974378;28;20525;-61
2022/06/20 04:45:26;;;;;;;10.10;2.40;;;;;;;16.79;58.36;99498.09;4991888;28;20050;-60
2022/06/20 04:48:00;;;;;;;5.90;1.80;;;;;;;16.80;58.02;99500.63;4991727;28;20058;-60
2022/06/20 04:50:30;;;;;;;7.93;2.33;;;;;;;16.80;58.17;99503.28;4974319;28;20047;-60
2022/06/20 04:53:05;;;;;;;8.23;2.28;;;;;;;16.79;58.22;99493.59;4974020;28;20506;-61
2022/06/20 04:55:33;;;;;;;9.38;2.63;;;;;;;16.80;57.99;99486.50;4974362;28;20054;-61
2022/06/20 04:58:04;;;;;;;7.55;2.47;;;;;;;16.78;58.15;99478.66;4974265;28;20411;-62
2022/06/20 05:00:42;;;;;;;6.78;2.13;;;;;;;16.74;58.47;99484.38;4974122;28;20082;-61
2022/06/20 05:03:14;;;;;;;7.97;2.70;;;;;;;16.74;58.30;99489.69;4991371;28;20116;-61
2022/06/20 05:05:45;;;;;;;8.20;2.30;;;;;;;16.70;58.14;99489.09;4991966;28;20150;-62
2022/06/20 05:08:16;;;;;;;7.00;1.92;;;;;;;16.68;58.21;99491.06;4990941;28;20054;-61
2022/06/20 05:10:53;;;;;;;7.60;2.33;;;;;;;16.63;58.48;99493.28;4974033;28;20458;-61
2022/06/20 05:13:23;;;;;;;8.80;2.33;;;;;;;16.60;58.26;99505.00;4991294;28;20077;-63
2022/06/20 05:15:52;;;;;;;7.30;2.65;;;;;;;16.58;58.16;99511.44;4991210;28;20054;-64
2022/06/20 05:18:22;;;;;;;8.73;2.67;;;;;;;16.54;58.93;99510.84;4973851;28;20129;-61
2022/06/20 05:20:53;;;;;;;8.05;2.20;;;;;;;16.52;58.64;99513.66;4991170;28;20092;-62
2022/06/20 05:23:32;;;;;;;7.45;2.13;;;;;;;16.50;59.16;99518.25;4991480;28;20050;-62
2022/06/20 05:26:01;;;;;;;5.15;2.10;;;;;;;16.54;58.75;99530.31;4991078;28;20530;-61
2022/06/20 05:28:29;;;;;;;8.27;2.10;;;;;;;16.56;58.60;99534.66;4990912;28;20050;-62
2022/06/20 05:30:56;;;;;;;4.47;1.88;;;;;;;16.57;58.77;99542.50;4991067;28;20108;-61
2022/06/20 05:33:45;;;;;;;7.50;2.03;;;;;;;16.58;59.01;99544.16;4973470;28;20089;-62
2022/06/20 05:36:25;;;;;;;8.20;1.88;;;;;;;16.59;59.27;99561.78;4991121;28;20046;-60
2022/06/20 05:39:11;;;;;;;5.75;1.88;;;;;;;16.61;59.53;99569.63;4973319;28;20057;-61
2022/06/20 05:41:39;;;;;;;5.90;2.10;;;;;;;16.68;59.33;99573.47;4974093;28;20446;-61
2022/06/20 05:44:11;;;;;;;8.30;2.00;;;;;;;16.71;59.61;99580.31;4990725;28;20054;-61
2022/06/20 05:46:42;;;;;;;6.68;2.10;;;;;;;16.76;59.67;99581.63;4991031;28;20050;-61
2022/06/20 05:49:17;;;;;;;8.15;1.88;;;;;;;16.83;59.79;99589.03;4990824;28;20150;-64
2022/06/20 05:51:45;;;;;;;6.80;1.92;;;;;;;16.91;59.39;99586.56;4991029;28;20046;-64
2022/06/20 05:54:27;;;;;;;8.50;2.30;;;;;;;16.93;59.86;99593.44;4973637;28;20058;-64
2022/06/20 05:57:18;;;;;;;5.68;1.90;;;;;;;16.99;59.50;99610.69;4990951;28;20105;-63
2022/06/20 05:59:57;;;;;;;5.38;1.85;;;;;;;17.05;59.27;99607.50;4990432;28;20125;-64
2022/06/20 06:02:44;;;;;;;8.43;2.15;;;;;;;17.12;58.65;99609.66;4991000;28;20058;-61
2022/06/20 06:05:27;;;;;;;6.68;2.10;;;;;;;17.12;59.10;99617.63;4990694;28;20046;-64
2022/06/20 06:08:07;;;;;;;6.75;2.55;;;;;;;17.15;59.36;99618.19;4973404;28;20466;-63
2022/06/20 06:11:12;;;;;;;4.80;1.75;;;;;;;17.19;58.63;99622.28;4990710;28;20046;-61
2022/06/20 06:13:58;;;;;;;3.83;1.52;;;;;;;17.21;59.03;99619.47;4973322;28;20050;-61
2022/06/20 06:16:55;;;;;;;11.00;2.30;;;;;;;17.22;59.13;99625.63;4990831;28;20541;-61
2022/06/20 06:19:48;;;;;;;9.50;1.92;;;;;;;17.25;58.59;99631.53;4989595;28;20081;-62
2022/06/20 06:22:24;;;;;;;6.07;1.90;;;;;;;17.30;58.49;99633.78;4991208;28;20402;-61
2022/06/20 06:25:03;;;;;;;6.15;1.80;;;;;;;17.32;58.54;99645.13;4990659;28;20136;-62
2022/06/20 06:27:33;;;;;;;5.63;1.85;;;;;;;17.37;58.78;99650.03;4973407;28;20054;-64
2022/06/20 06:30:13;;;;;;;5.88;1.90;;;;;;;17.40;58.77;99640.00;4990417;28;20454;-63
2022/06/20 06:32:49;;;;;;;5.05;1.90;;;;;;;17.48;58.26;99646.44;4990477;28;20050;-66
2022/06/20 06:35:44;;;;;;;6.22;1.55;;;;;;;17.55;58.01;99651.09;4990432;28;20050;-61
2022/06/20 06:38:18;;;;;;;8.73;1.95;;;;;;;17.65;57.69;99652.94;4990891;28;20046;-61
2022/06/20 06:40:48;;;;;;;5.55;1.73;;;;;;;17.75;57.63;99655.63;4994108;28;20054;-62
2022/06/20 06:43:26;;;;;;;5.22;1.52;;;;;;;17.82;56.99;99654.94;4993953;28;20054;-61
2022/06/20 06:45:57;;;;;;;9.25;1.40;;;;;;;17.91;57.32;99653.25;4993993;28;20054;-61
2022/06/20 06:48:39;;;;;;;6.70;1.52;;;;;;;17.97;57.00;99651.88;4976475;28;20092;-62
2022/06/20 06:51:12;;;;;;;4.10;1.63;;;;;;;18.06;56.78;99648.38;4993781;28;20057;-61
2022/06/20 06:53:43;;;;;;;4.47;1.38;;;;;;;18.17;57.12;99652.75;4993626;28;20050;-62
2022/06/20 06:56:18;;;;;;;7.72;1.58;;;;;;;18.27;56.51;99646.63;4993730;28;20061;-61
2022/06/20 06:58:53;;;;;;;3.83;1.20;;;;;;;18.38;56.76;99645.63;4976435;28;20058;-62
2022/06/20 07:01:41;;;;;;;9.85;2.25;;;;;;;18.48;56.88;99638.47;4993479;28;20051;-61
2022/06/20 07:04:19;;;;;;;3.83;1.30;;;;;;;18.60;56.12;99636.47;4993706;28;20054;-63
2022/06/20 07:06:52;;;;;;;9.05;1.45;;;;;;;18.71;54.85;99648.78;4993827;28;20136;-62
2022/06/20 07:09:37;;;;;;;6.45;1.60;;;;;;;18.74;54.21;99643.19;4993452;28;20051;-62
2022/06/20 07:12:12;;;;;;;5.82;1.50;;;;;;;18.80;53.77;99637.28;4976678;28;20100;-61
2022/06/20 07:14:43;;;;;;;4.45;1.50;;;;;;;18.80;53.36;99637.28;4993354;28;20481;-61
2022/06/20 07:17:49;;;;;;;3.20;1.20;;;;;;;18.77;53.69;99640.25;4987240;28;20101;-60
2022/06/20 07:20:21;;;;;;;3.78;1.30;;;;;;;18.84;53.29;99640.50;4959057;28;20070;-61
2022/06/20 07:22:49;;;;;;;4.95;1.38;;;;;;;18.83;52.85;99638.81;4988404;28;20069;-62
2022/06/20 07:25:35;;;;;;;3.03;1.08;;;;;;;18.77;52.76;99642.91;4973117;28;20046;-60
2022/06/20 07:28:06;;;;;;;4.00;1.30;;;;;;;18.79;53.27;99638.25;4981180;28;20574;-60
2022/06/20 07:30:41;;;;;;;3.55;1.23;;;;;;;18.76;53.46;99630.53;4955982;28;20086;-60
2022/06/20 07:33:17;;;;;;;2.22;1.08;;;;;;;18.79;53.48;99635.59;4973317;28;20046;-61
2022/06/20 07:35:49;;;;;;;4.55;1.42;;;;;;;18.86;53.96;99644.72;4973033;28;20053;-62
2022/06/20 07:38:21;;;;;;;3.60;1.30;;;;;;;18.96;53.76;99644.69;4973389;28;20051;-60
2022/06/20 07:40:54;;;;;;;4.32;1.30;;;;;;;19.08;53.51;99640.03;4990150;28;20104;-60
2022/06/20 07:43:43;;;;;;;6.00;1.40;;;;;;;19.12;52.82;99651.25;4973449;28;20054;-61
2022/06/20 07:46:31;;;;;;;5.10;1.20;;;;;;;19.20;51.87;99643.34;4956110;28;20625;-61
2022/06/20 07:49:02;;;;;;;4.35;1.50;;;;;;;19.27;51.89;99654.28;4973099;28;20126;-61
2022/06/20 07:51:34;;;;;;;6.95;1.33;;;;;;;19.29;51.79;99649.66;4973318;28;20094;-60
2022/06/20 07:54:09;;;;;;;2.92;1.23;;;;;;;19.32;51.81;99656.53;4956362;28;20086;-62
2022/06/20 07:56:42;;;;;;;2.08;1.25;;;;;;;19.31;52.16;99644.16;4973429;28;20051;-60
2022/06/20 07:59:42;;;;;;;2.00;1.00;;;;;;;19.29;51.64;99649.66;4956089;28;20137;-61
2022/06/20 08:02:22;;;;;;;4.03;1.00;;;;;;;19.31;51.22;99654.81;4958684;28;20058;-62
2022/06/20 08:04:55;;;;;;;4.28;1.55;;;;;;;19.32;51.34;99649.34;4955894;28;20550;-63
2022/06/20 08:07:28;;;;;;;3.17;1.08;;;;;;;19.32;51.40;99661.88;4973339;28;20058;-60
2022/06/20 08:10:13;;;;;;;5.40;1.27;;;;;;;19.27;51.68;99660.47;4972927;28;20066;-61
2022/06/20 08:13:04;;;;;;;2.40;1.05;;;;;;;19.25;52.14;99661.59;4957402;28;20047;-60
2022/06/20 08:15:59;;;;;;;3.88;1.50;;;;;;;19.25;51.41;99659.75;4973351;28;20055;-60
2022/06/20 08:18:26;;;;;;;6.32;1.40;;;;;;;19.31;51.26;99670.84;4955558;28;20105;-60
2022/06/20 08:20:57;;;;;;;3.85;1.20;;;;;;;19.30;51.05;99659.34;4972768;28;20050;-63
2022/06/20 08:23:36;;;;;;;6.38;1.65;;;;;;;19.32;51.38;99661.88;4972859;28;20050;-60
2022/06/20 08:26:12;;;;;;;4.93;1.35;;;;;;;19.40;51.94;99659.31;4955544;28;20065;-62
2022/06/20 08:28:59;;;;;;;4.72;1.30;;;;;;;19.50;50.68;99659.22;4972703;28;20166;-60
2022/06/20 08:31:55;;;;;;;4.63;1.60;;;;;;;19.66;51.78;99662.09;4972580;28;20055;-61
2022/06/20 08:34:36;;;;;;;5.55;1.50;;;;;;;19.81;49.84;99656.25;4950975;28;20051;-61
2022/06/20 08:37:18;;;;;;;6.65;1.60;;;;;;;19.93;50.91;99657.72;4955174;28;20062;-63
2022/06/20 08:39:56;;;;;;;3.92;1.60;;;;;;;20.06;50.69;99664.56;4955156;28;20102;-60
2022/06/20 08:42:48;;;;;;;3.95;1.40;;;;;;;20.19;50.70;99669.53;4955258;28;20050;-61
2022/06/20 08:45:51;;;;;;;3.53;1.40;;;;;;;20.37;49.21;99669.50;4971541;28;20059;-62
2022/06/20 08:48:24;;;;;;;3.30;1.50;;;;;;;20.55;48.97;99674.00;4955399;28;20094;-61
2022/06/20 08:51:14;;;;;;;5.53;1.55;;;;;;;20.68;48.96;99676.28;4972792;28;20055;-60
2022/06/20 08:54:08;;;;;;;3.92;1.52;;;;;;;20.79;48.77;99677.88;4972813;28;20059;-63
2022/06/20 08:57:06;;;;;;;5.88;1.48;;;;;;;20.84;48.01;99683.59;4955089;28;20109;-61
2022/06/20 08:59:54;;;;;;;7.80;1.70;;;;;;;20.90;46.67;99679.47;4972088;28;20085;-61
2022/06/20 09:02:33;;;;;;;4.22;1.73;;;;;;;20.95;47.33;99680.69;4971825;28;20055;-61
2022/06/20 09:05:38;;;;;;;4.45;1.58;;;;;;;20.99;48.25;99672.31;4972057;28;20074;-62
2022/06/20 09:08:38;;;;;;;6.35;1.98;;;;;;;21.11;48.91;99676.41;4971941;28;20046;-62
2022/06/20 09:11:27;;;;;;;11.90;1.80;;;;;;;21.22;48.52;99673.47;4955068;28;20078;-60
2022/06/20 09:13:55;;;;;;;3.63;1.52;;;;;;;21.37;48.37;99672.88;4955072;28;20047;-60
2022/06/20 09:16:36;;;;;;;3.65;1.60;;;;;;;21.40;47.06;99679.75;4972072;28;20061;-63
2022/06/20 09:19:22;;;;;;;5.47;1.92;;;;;;;21.45;46.26;99682.78;4971798;28;20145;-60
2022/06/20 09:22:04;;;;;;;4.03;1.58;;;;;;;21.45;46.58;99680.94;4971686;28;20051;-60
2022/06/20 09:24:33;;;;;;;6.18;1.77;;;;;;;21.51;46.03;99682.16;4971838;28;20088;-61
2022/06/20 09:27:13;;;;;;;6.28;1.80;;;;;;;21.57;46.58;99678.00;4971969;28;20054;-63
2022/06/20 09:29:45;;;;;;;2.58;1.40;;;;;;;21.63;46.10;99679.19;4971892;28;20066;-60
2022/06/20 09:32:48;;;;;;;3.90;2.17;;;;;;;21.66;46.38;99677.00;4971461;28;20058;-60
2022/06/20 09:35:33;;;;;;;;;;;;;;;21.78;47.63;99685.63;4972090;28;20047;-62
2022/06/20 09:38:32;;;;;;;3.42;1.45;;;;;;;21.92;46.32;99676.13;4971696;28;19953;-64
2022/06/20 09:41:07;;;;;;;3.47;1.65;;;;;;;22.05;44.96;99682.84;4956578;28;20280;-60
2022/06/20 09:43:55;;;;;;;7.15;1.80;;;;;;;22.11;44.21;99682.19;4971685;28;20093;-62
2022/06/20 09:46:48;;;;;;;7.60;1.52;;;;;;;22.12;43.39;99691.88;4971488;28;20574;-61
2022/06/20 09:49:55;;;;;;;5.70;1.63;;;;;;;22.09;44.25;99692.25;4971488;28;20050;-60
2022/06/20 09:52:50;;;;;;;4.22;1.50;;;;;;;22.07;44.06;99689.72;4971582;28;20487;-62
2022/06/20 09:55:49;;;;;;;4.90;1.70;;;;;;;22.04;44.67;99691.88;4971373;28;20574;-63
2022/06/20 09:58:27;;;;;;;3.75;1.55;;;;;;;22.11;43.44;99684.84;4966256;28;20047;-61
2022/06/20 10:01:03;;;;;;;5.88;2.03;;;;;;;22.21;42.86;99684.72;4971637;28;20047;-60
2022/06/20 10:03:41;;;;;;;5.15;1.90;;;;;;;22.25;43.50;99699.47;4971327;28;20061;-61
2022/06/20 10:06:34;;;;;;;4.38;1.55;;;;;;;22.30;43.04;99694.44;4971526;28;20074;-61
2022/06/20 10:09:29;;;;;;;4.82;1.63;;;;;;;22.34;42.72;99702.97;4971319;28;20058;-61
2022/06/20 10:12:09;;;;;;;5.97;1.80;;;;;;;22.43;43.63;99701.16;4971568;28;20047;-60
2022/06/20 10:15:09;;;;;;;4.45;1.77;;;;;;;22.45;44.07;99694.63;4974708;28;20047;-61
2022/06/20 10:18:06;;;;;;;5.97;1.80;;;;;;;22.55;43.31;99705.22;4974918;28;20054;-61
2022/06/20 10:20:40;;;;;;;4.25;1.52;;;;;;;22.65;42.52;99694.28;4975237;28;20055;-62
2022/06/20 10:23:09;;;;;;;4.82;1.90;;;;;;;22.72;43.06;99708.72;4975437;28;20059;-60
2022/06/20 10:25:52;;;;;;;4.78;1.85;;;;;;;22.75;43.30;99707.53;4975071;28;20098;-61
2022/06/20 10:28:34;;;;;;;3.97;1.90;;;;;;;22.90;43.58;99707.69;4957399;28;20514;-63
2022/06/20 10:31:18;;;;;;;8.20;2.00;;;;;;;23.04;43.08;99704.34;4957773;28;20109;-61
2022/06/20 10:34:06;;;;;;;5.55;1.88;;;;;;;23.20;42.80;99701.75;4974810;28;20042;-63
2022/06/20 10:36:48;;;;;;;2.20;1.42;;;;;;;23.37;41.45;99699.91;4958782;28;20098;-62
2022/06/20 10:39:30;;;;;;;8.00;1.80;;;;;;;23.49;42.86;99697.69;4957520;28;20065;-61
2022/06/20 10:42:24;;;;;;;5.30;1.70;;;;;;;23.56;41.79;99696.81;4974726;28;20054;-60
2022/06/20 10:45:08;;;;;;;4.25;1.67;;;;;;;23.66;41.23;99701.97;4974780;28;20577;-62
2022/06/20 10:47:56;;;;;;;3.53;1.60;;;;;;;23.76;41.56;99699.09;4974982;28;20067;-61
2022/06/20 10:50:46;;;;;;;3.50;1.88;;;;;;;24.00;42.14;99691.88;4974470;28;20086;-61
2022/06/20 10:53:31;;;;;;;4.50;1.65;;;;;;;24.27;40.35;99689.75;4962779;28;20054;-61
2022/06/20 10:56:13;;;;;;;2.88;1.42;;;;;;;24.45;39.50;99702.06;4975151;28;20055;-61
2022/06/20 10:58:57;;;;;;;3.67;1.48;;;;;;;24.47;39.08;99705.38;4974802;28;20058;-61
2022/06/20 11:01:49;;;;;;;5.63;1.50;;;;;;;24.47;39.04;99710.78;4974738;28;20047;-63
2022/06/20 11:04:23;;;;;;;5.45;1.90;;;;;;;24.49;39.79;99708.75;4975016;28;20141;-63
2022/06/20 11:06:58;;;;;;;4.88;1.80;;;;;;;24.55;38.78;99710.72;4974785;28;20101;-60
2022/06/20 11:09:41;;;;;;;3.53;1.60;;;;;;;24.64;38.27;99706.09;4957214;28;20057;-60
2022/06/20 11:12:27;;;;;;;5.55;1.88;;;;;;;24.68;38.55;99717.34;4974461;28;20054;-60
2022/06/20 11:15:07;;;;;;;4.45;1.60;;;;;;;24.68;38.34;99710.09;4974409;28;20113;-61
2022/06/20 11:17:56;;;;;;;3.72;1.70;;;;;;;24.83;39.00;99710.16;4974257;28;20047;-63
2022/06/20 11:20:38;;;;;;;3.40;1.90;;;;;;;25.12;38.59;99710.41;4973947;28;20102;-61
2022/06/20 11:23:26;;;;;;;3.88;1.45;;;;;;;25.40;38.60;99715.13;4957042;28;20047;-61
2022/06/20 11:26:15;;;;;;;3.70;1.50;;;;;;;25.61;37.35;99717.09;4974295;28;20051;-61
2022/06/20 11:29:04;;;;;;;3.72;1.40;;;;;;;25.59;36.20;99716.47;4973795;28;20055;-62
2022/06/20 11:31:57;;;;;;;2.80;1.45;;;;;;;25.54;36.09;99709.91;4973970;28;20046;-62
2022/06/20 11:34:32;;;;;;;4.25;1.77;;;;;;;25.49;36.72;99714.00;4943613;28;20518;-61
2022/06/20 11:37:16;;;;;;;3.75;1.50;;;;;;;25.62;38.58;99718.78;4973635;28;20051;-61
2022/06/20 11:39:46;;;;;;;5.22;1.50;;;;;;;25.89;36.91;99712.88;4973673;28;20105;-61
2022/06/20 11:42:29;;;;;;;3.83;1.27;;;;;;;26.05;36.05;99721.78;4973937;28;20055;-62
2022/06/20 11:45:08;;;;;;;;;;;;;;;26.18;38.49;99712.97;4973854;28;20562;-61
2022/06/20 11:47:57;;;;;;;2.25;1.08;;;;;;;26.14;35.51;99721.47;4973459;28;19968;-61
2022/06/20 11:50:42;;;;;;;4.35;1.30;;;;;;;25.98;35.31;99724.41;4973469;28;20133;-61
2022/06/20 11:53:17;;;;;;;4.95;1.60;;;;;;;25.79;35.19;99723.13;4956509;28;20059;-61
2022/06/20 11:56:12;;;;;;;4.25;1.45;;;;;;;25.43;36.42;99724.69;4956344;28;20062;-61
2022/06/20 11:59:22;;;;;;;3.47;1.45;;;;;;;25.19;36.73;99721.28;4973108;28;20106;-62
2022/06/20 12:02:24;;;;;;;5.57;1.40;;;;;;;25.03;36.81;99711.47;4937135;28;20050;-61
2022/06/20 12:05:00;;;;;;;3.93;1.40;;;;;;;24.96;36.33;99723.00;4973416;28;20145;-63
2022/06/20 12:07:47;;;;;;;2.85;1.13;;;;;;;24.98;36.49;99717.44;4958641;28;20055;-62
2022/06/20 12:10:29;;;;;;;3.53;1.55;;;;;;;25.02;35.15;99734.91;4972894;28;20362;-61
2022/06/20 12:13:06;;;;;;;2.75;1.20;;;;;;;25.05;35.10;99712.16;4973154;28;20195;-61
2022/06/20 12:16:11;;;;;;;3.05;1.13;;;;;;;25.01;35.87;99724.31;4973131;28;20046;-61
2022/06/20 12:25:01;;;;;;;3.67;1.20;;;;;;;25.11;36.26;99717.63;4972934;28;20058;-63
2022/06/20 12:27:28;;;;;;;;;;;;;;;25.28;37.76;99725.53;4956030;28;20125;-60
2022/06/20 12:29:55;;;;;;;1.92;0.90;;;;;;;25.55;36.18;99728.59;4972411;28;19930;-61
2022/06/20 12:32:34;;;;;;;4.00;1.27;;;;;;;25.74;34.63;99720.97;4972809;28;20063;-63
2022/06/20 12:35:13;;;;;;;2.92;1.35;;;;;;;26.03;35.32;99724.66;4972357;28;20097;-61
2022/06/20 12:37:49;;;;;;;5.10;1.33;;;;;;;26.36;34.93;99731.47;4972264;28;20138;-61